createdAt,value
2019-03-18T00:02:59.204Z,0.93
2019-03-18T00:07:53.793Z,2.67
2019-03-18T00:12:48.442Z,2.00
2019-03-18T00:17:43.113Z,2.10
2019-03-18T00:22:37.693Z,0.47
2019-03-18T00:27:32.301Z,1.13
2019-03-18T00:32:26.887Z,1.37
2019-03-18T00:37:21.479Z,1.37
2019-03-18T00:42:16.070Z,1.40
2019-03-18T00:47:10.666Z,2.73
2019-03-18T00:52:05.317Z,1.07
2019-03-18T00:56:59.911Z,1.57
2019-03-18T01:01:54.504Z,2.00
2019-03-18T01:06:49.107Z,1.60
2019-03-18T01:11:43.696Z,1.03
2019-03-18T01:16:38.304Z,1.50
2019-03-18T01:21:32.883Z,1.70
2019-03-18T01:26:27.479Z,1.00
2019-03-18T01:31:22.074Z,2.77
2019-03-18T01:36:16.655Z,3.40
2019-03-18T01:41:11.252Z,0.67
2019-03-18T01:46:05.913Z,1.70
2019-03-18T01:51:00.519Z,1.20
2019-03-18T01:55:55.116Z,1.03
2019-03-18T02:00:49.700Z,1.23
2019-03-18T02:05:44.289Z,1.77
2019-03-18T02:10:38.888Z,0.50
2019-03-18T02:15:33.480Z,0.40
2019-03-18T02:20:28.214Z,2.20
2019-03-18T02:25:22.812Z,1.43
2019-03-18T02:30:19.379Z,1.67
2019-03-18T02:35:14.038Z,2.67
2019-03-18T02:40:11.723Z,2.63
2019-03-18T02:45:11.883Z,1.60
2019-03-18T02:50:08.537Z,2.27
2019-03-18T02:55:03.254Z,1.37
2019-03-18T02:59:57.844Z,0.70
2019-03-18T03:04:52.447Z,1.60
2019-03-18T03:09:47.084Z,2.10
2019-03-18T03:14:41.678Z,3.50
2019-03-18T03:19:36.267Z,1.40
2019-03-18T03:24:30.881Z,2.10
2019-03-18T03:29:25.562Z,1.57
2019-03-18T03:34:20.160Z,1.77
2019-03-18T03:39:14.763Z,1.80
2019-03-18T03:44:09.343Z,1.27
2019-03-18T03:49:04.010Z,1.83
2019-03-18T03:53:58.672Z,3.93
2019-03-18T03:58:53.384Z,2.20
2019-03-18T04:03:48.115Z,1.67
2019-03-18T04:08:42.775Z,3.43
2019-03-18T04:13:37.368Z,2.23
2019-03-18T04:18:31.944Z,1.63
2019-03-18T04:23:26.551Z,1.63
2019-03-18T04:28:21.151Z,2.83
2019-03-18T04:33:15.728Z,2.13
2019-03-18T04:38:10.324Z,1.97
2019-03-18T04:43:04.911Z,3.57
2019-03-18T04:47:59.537Z,2.10
2019-03-18T04:52:54.104Z,3.23
2019-03-18T04:57:48.700Z,2.67
2019-03-18T05:02:43.293Z,3.47
2019-03-18T05:07:37.966Z,3.57
2019-03-18T05:12:32.557Z,3.10
2019-03-18T05:17:27.227Z,3.20
2019-03-18T05:22:21.815Z,1.97
2019-03-18T05:27:16.407Z,2.17
2019-03-18T05:32:11.016Z,2.37
2019-03-18T05:37:05.611Z,2.40
2019-03-18T05:42:00.192Z,2.77
2019-03-18T05:46:54.799Z,2.37
2019-03-18T05:51:49.394Z,3.27
2019-03-18T05:56:44.081Z,4.43
2019-03-18T06:01:38.663Z,2.33
2019-03-18T06:06:33.243Z,2.17
2019-03-18T06:11:27.856Z,3.63
2019-03-18T06:16:22.459Z,4.60
2019-03-18T06:21:17.071Z,2.97
2019-03-18T06:26:11.639Z,3.93
2019-03-18T06:31:06.229Z,4.10
2019-03-18T06:36:00.838Z,4.47
2019-03-18T06:40:55.444Z,3.93
2019-03-18T06:45:50.028Z,2.60
2019-03-18T06:50:44.724Z,3.37
2019-03-18T06:55:42.312Z,2.17
2019-03-18T07:00:37.250Z,3.00
2019-03-18T07:05:32.040Z,4.47
2019-03-18T07:10:27.048Z,3.47
2019-03-18T07:15:21.974Z,2.93
2019-03-18T07:20:16.974Z,2.03
2019-03-18T07:25:12.676Z,4.10
2019-03-18T07:30:16.323Z,3.93
2019-03-18T07:35:11.406Z,3.23
2019-03-18T07:40:15.611Z,1.90
2019-03-18T07:45:15.461Z,1.73
2019-03-18T07:50:14.617Z,3.50
2019-03-18T07:55:10.412Z,1.53
2019-03-18T08:00:12.437Z,3.07
2019-03-18T08:05:09.978Z,9.63
2019-03-18T08:10:07.118Z,2.20
2019-03-18T08:15:01.714Z,2.30
2019-03-18T08:19:56.619Z,0.80
2019-03-18T08:24:51.223Z,2.00
2019-03-18T08:29:45.834Z,1.20
2019-03-18T08:34:40.419Z,1.87
2019-03-18T08:39:35.199Z,1.17
2019-03-18T08:44:29.801Z,1.33
2019-03-18T08:49:24.403Z,0.70
2019-03-18T08:54:19.016Z,1.27
2019-03-18T08:59:13.599Z,1.70
2019-03-18T09:04:11.712Z,2.03
2019-03-18T09:09:14.424Z,2.03
2019-03-18T09:14:10.652Z,2.80
2019-03-18T09:19:09.000Z,1.57
2019-03-18T09:24:02.873Z,1.70
2019-03-18T09:28:57.594Z,0.73
2019-03-18T09:33:52.325Z,1.93
2019-03-18T09:38:47.008Z,2.43
2019-03-18T09:43:42.262Z,3.30
2019-03-18T09:48:38.618Z,2.10
2019-03-18T09:53:33.250Z,4.73
2019-03-18T09:58:27.925Z,2.87
2019-03-18T10:03:22.857Z,4.80
2019-03-18T10:08:17.619Z,1.07
2019-03-18T10:13:12.230Z,3.60
2019-03-18T10:18:07.003Z,2.67
2019-03-18T10:23:02.968Z,4.30
2019-03-18T10:27:57.925Z,2.77
2019-03-18T10:32:52.541Z,1.53
2019-03-18T10:37:47.756Z,3.07
2019-03-18T10:42:45.086Z,2.67
2019-03-18T10:47:39.700Z,2.20
2019-03-18T10:52:34.616Z,4.33
2019-03-18T10:57:29.240Z,5.00
2019-03-18T11:02:23.860Z,3.37
2019-03-18T11:07:18.487Z,5.43
2019-03-18T11:12:13.088Z,2.40
2019-03-18T11:17:07.705Z,3.27
2019-03-18T11:22:04.782Z,7.43
2019-03-18T11:26:59.460Z,4.00
2019-03-18T11:31:54.292Z,3.33
2019-03-18T11:36:48.867Z,1.20
2019-03-18T11:41:43.509Z,2.97
2019-03-18T11:46:40.470Z,2.67
2019-03-18T11:51:35.390Z,3.83
2019-03-18T11:56:30.589Z,3.90
2019-03-18T12:01:25.310Z,3.53
2019-03-18T12:06:19.933Z,1.70
2019-03-18T12:11:14.999Z,4.83
2019-03-18T12:16:10.134Z,4.23
2019-03-18T12:21:05.354Z,1.27
2019-03-18T12:26:00.072Z,4.00
2019-03-18T12:30:54.677Z,2.20
2019-03-18T12:35:55.410Z,4.70
2019-03-18T12:40:54.955Z,4.73
2019-03-18T12:45:49.617Z,4.57
2019-03-18T12:50:55.680Z,3.27
2019-03-18T12:55:40.631Z,2.07
2019-03-18T13:00:37.580Z,3.63
2019-03-18T13:05:32.456Z,2.57
2019-03-18T13:10:27.377Z,3.17
2019-03-18T13:15:22.667Z,2.30
2019-03-18T13:20:22.554Z,3.50
2019-03-18T13:25:17.229Z,2.73
2019-03-18T13:30:18.183Z,3.57
2019-03-18T13:35:13.010Z,3.93
2019-03-18T13:40:14.543Z,2.13
2019-03-18T13:45:18.793Z,4.60
2019-03-18T13:50:19.427Z,2.40
2019-03-18T13:55:14.633Z,3.63
2019-03-18T14:00:20.997Z,3.20
2019-03-18T14:05:16.843Z,8.07
2019-03-18T14:10:17.847Z,5.60
2019-03-18T14:15:19.080Z,2.93
2019-03-18T14:20:19.941Z,1.77
2019-03-18T14:25:15.157Z,2.87
2019-03-18T14:30:23.855Z,1.53
2019-03-18T14:35:21.275Z,0.93
2019-03-18T14:40:20.980Z,1.93
2019-03-18T14:45:21.366Z,2.70
2019-03-18T14:50:17.663Z,2.50
2019-03-18T14:55:14.785Z,3.17
2019-03-18T15:00:27.195Z,1.97
2019-03-18T15:05:21.933Z,1.90
2019-03-18T15:10:23.476Z,5.57
2019-03-18T15:15:19.859Z,4.57
2019-03-18T15:20:17.312Z,3.67
2019-03-18T15:25:16.222Z,2.83
2019-03-18T15:30:20.237Z,2.70
2019-03-18T15:35:16.990Z,3.97
2019-03-18T15:40:27.284Z,2.80
2019-03-18T15:45:23.276Z,2.27
2019-03-18T15:50:26.659Z,1.57
2019-03-18T15:55:23.857Z,1.10
2019-03-18T16:00:29.039Z,3.87
2019-03-18T16:05:23.718Z,2.73
2019-03-18T16:10:20.248Z,2.47
2019-03-18T16:15:16.910Z,1.30
2019-03-18T16:20:18.418Z,1.53
2019-03-18T16:25:13.644Z,1.73
2019-03-18T16:30:22.260Z,2.77
2019-03-18T16:35:18.090Z,3.80
2019-03-18T16:40:16.586Z,3.37
2019-03-18T16:45:17.272Z,5.60
2019-03-18T16:50:21.075Z,3.00
2019-03-18T16:55:15.879Z,2.10
2019-03-18T17:00:17.579Z,0.80
2019-03-18T17:05:12.321Z,2.77
2019-03-18T17:10:15.683Z,1.07
2019-03-18T17:15:13.505Z,1.87
2019-03-18T17:20:12.041Z,2.03
2019-03-18T17:25:11.324Z,1.90
2019-03-18T17:30:13.162Z,2.10
2019-03-18T17:35:08.743Z,2.10
2019-03-18T17:40:03.918Z,1.73
2019-03-18T17:44:58.538Z,3.60
2019-03-18T17:49:54.887Z,0.83
2019-03-18T17:54:49.487Z,1.77
2019-03-18T17:59:44.098Z,0.77
2019-03-18T18:04:38.760Z,1.10
2019-03-18T18:09:33.360Z,0.70
2019-03-18T18:14:27.939Z,1.53
2019-03-18T18:19:22.531Z,1.50
2019-03-18T18:24:17.127Z,0.70
2019-03-18T18:29:11.721Z,1.50
2019-03-18T18:34:06.317Z,2.10
2019-03-18T18:39:00.916Z,1.23
2019-03-18T18:43:55.499Z,1.87
2019-03-18T18:48:50.095Z,1.30
2019-03-18T18:53:44.710Z,1.37
2019-03-18T18:58:39.304Z,1.27
2019-03-18T19:03:33.929Z,1.33
2019-03-18T19:08:28.539Z,1.87
2019-03-18T19:13:23.147Z,3.20
2019-03-18T19:18:17.746Z,5.07
2019-03-18T19:23:12.341Z,3.83
2019-03-18T19:28:07.987Z,3.33
2019-03-18T19:33:02.594Z,4.67
2019-03-18T19:37:57.194Z,5.30
2019-03-18T19:42:51.936Z,6.70
2019-03-18T19:47:46.605Z,7.70
2019-03-18T19:52:41.266Z,3.93
2019-03-18T19:57:35.903Z,3.77
2019-03-18T20:02:30.499Z,11.03
2019-03-18T20:07:25.098Z,11.57
2019-03-18T20:12:19.673Z,4.40
2019-03-18T20:17:14.279Z,4.17
2019-03-18T20:22:08.877Z,3.23
2019-03-18T20:27:03.463Z,5.40
2019-03-18T20:31:58.924Z,7.30
2019-03-18T20:36:53.503Z,12.40
2019-03-18T20:41:48.133Z,8.43
2019-03-18T20:46:42.825Z,6.60
2019-03-18T20:51:37.432Z,5.53
2019-03-18T20:56:32.017Z,5.37
2019-03-18T21:01:26.628Z,5.53
2019-03-18T21:06:21.205Z,6.10
2019-03-18T21:11:15.803Z,6.37
2019-03-18T21:16:10.412Z,6.73
2019-03-18T21:21:05.067Z,5.33
2019-03-18T21:25:59.673Z,5.07
2019-03-18T21:30:54.254Z,4.53
2019-03-18T21:35:48.855Z,4.67
2019-03-18T21:40:43.498Z,4.73
2019-03-18T21:45:38.116Z,4.17
2019-03-18T21:50:32.694Z,5.10
2019-03-18T21:55:27.352Z,4.63
2019-03-18T22:00:23.345Z,6.43
2019-03-18T22:05:18.088Z,6.43
2019-03-18T22:10:18.325Z,6.10
2019-03-18T22:15:15.162Z,6.03
2019-03-18T22:20:20.315Z,5.07
2019-03-18T22:25:16.009Z,6.20
2019-03-18T22:30:14.629Z,4.60
2019-03-18T22:35:11.020Z,4.70
2019-03-18T22:40:14.898Z,5.20
2019-03-18T22:45:15.219Z,5.33
2019-03-18T22:50:14.553Z,4.43
2019-03-18T22:55:12.515Z,6.83
2019-03-18T23:00:21.490Z,6.60
2019-03-18T23:05:16.687Z,6.13
2019-03-18T23:10:11.511Z,4.60
2019-03-18T23:15:09.167Z,4.97
2019-03-18T23:20:04.554Z,5.67
2019-03-18T23:25:07.082Z,7.30
2019-03-18T23:29:55.474Z,8.13
2019-03-18T23:34:50.067Z,6.00
2019-03-18T23:39:44.668Z,7.13
2019-03-18T23:44:39.264Z,6.23
2019-03-18T23:49:33.884Z,6.67
2019-03-18T23:54:28.539Z,6.70
2019-03-18T23:59:23.147Z,10.07
